sensor_id;sensor_type;location;lat;lon;timestamp;P1;durP1;ratioP1;P2;durP2;ratioP2
27796;SDS011;15177;50.844;4.412;2023-05-10T00:01:49;16.95;;;8.90;;
27796;SDS011;15177;50.844;4.412;2023-05-10T00:04:15;18.30;;;8.68;;
27796;SDS011;15177;50.844;4.412;2023-05-10T00:06:40;16.83;;;8.43;;
27796;SDS011;15177;50.844;4.412;2023-05-10T00:09:07;17.33;;;8.43;;
27796;SDS011;15177;50.844;4.412;2023-05-10T00:11:32;22.55;;;9.30;;
27796;SDS011;15177;50.844;4.412;2023-05-10T00:13:58;18.58;;;9.80;;
27796;SDS011;15177;50.844;4.412;2023-05-10T00:16:24;22.73;;;9.55;;
27796;SDS011;15177;50.844;4.412;2023-05-10T00:18:51;22.33;;;9.77;;
27796;SDS011;15177;50.844;4.412;2023-05-10T00:21:16;20.05;;;9.38;;
27796;SDS011;15177;50.844;4.412;2023-05-10T00:23:42;23.45;;;9.63;;
27796;SDS011;15177;50.844;4.412;2023-05-10T00:26:08;22.80;;;9.73;;
27796;SDS011;15177;50.844;4.412;2023-05-10T00:28:33;18.40;;;9.27;;
27796;SDS011;15177;50.844;4.412;2023-05-10T00:30:59;22.83;;;9.77;;
27796;SDS011;15177;50.844;4.412;2023-05-10T00:33:24;22.52;;;9.63;;
27796;SDS011;15177;50.844;4.412;2023-05-10T00:35:50;21.80;;;10.93;;
27796;SDS011;15177;50.844;4.412;2023-05-10T00:38:16;21.38;;;11.15;;
27796;SDS011;15177;50.844;4.412;2023-05-10T00:40:42;25.70;;;11.68;;
27796;SDS011;15177;50.844;4.412;2023-05-10T00:43:08;19.65;;;11.63;;
27796;SDS011;15177;50.844;4.412;2023-05-10T00:45:34;18.60;;;10.77;;
27796;SDS011;15177;50.844;4.412;2023-05-10T00:48:01;19.20;;;10.75;;
27796;SDS011;15177;50.844;4.412;2023-05-10T00:50:28;21.73;;;11.38;;
27796;SDS011;15177;50.844;4.412;2023-05-10T00:52:56;24.92;;;10.38;;
27796;SDS011;15177;50.844;4.412;2023-05-10T00:55:23;21.88;;;10.68;;
27796;SDS011;15177;50.844;4.412;2023-05-10T00:57:49;23.80;;;10.10;;
27796;SDS011;15177;50.844;4.412;2023-05-10T01:00:15;22.05;;;10.95;;
27796;SDS011;15177;50.844;4.412;2023-05-10T01:02:43;22.58;;;11.10;;
27796;SDS011;15177;50.844;4.412;2023-05-10T01:05:11;19.15;;;11.32;;
27796;SDS011;15177;50.844;4.412;2023-05-10T01:07:37;23.60;;;12.40;;
27796;SDS011;15177;50.844;4.412;2023-05-10T01:10:02;21.30;;;10.75;;
27796;SDS011;15177;50.844;4.412;2023-05-10T01:12:28;22.08;;;11.55;;
27796;SDS011;15177;50.844;4.412;2023-05-10T01:14:55;24.52;;;12.00;;
27796;SDS011;15177;50.844;4.412;2023-05-10T01:17:21;22.08;;;10.95;;
27796;SDS011;15177;50.844;4.412;2023-05-10T01:19:47;20.88;;;11.68;;
27796;SDS011;15177;50.844;4.412;2023-05-10T01:25:18;29.10;;;13.68;;
27796;SDS011;15177;50.844;4.412;2023-05-10T01:28:13;28.27;;;13.60;;
27796;SDS011;15177;50.844;4.412;2023-05-10T01:34:07;25.02;;;14.02;;
27796;SDS011;15177;50.844;4.412;2023-05-10T01:39:17;22.23;;;13.57;;
27796;SDS011;15177;50.844;4.412;2023-05-10T01:41:52;25.50;;;13.68;;
27796;SDS011;15177;50.844;4.412;2023-05-10T01:44:40;20.48;;;12.75;;
27796;SDS011;15177;50.844;4.412;2023-05-10T01:47:42;22.73;;;13.20;;
27796;SDS011;15177;50.844;4.412;2023-05-10T01:50:18;24.15;;;13.48;;
27796;SDS011;15177;50.844;4.412;2023-05-10T01:52:53;23.73;;;12.70;;
27796;SDS011;15177;50.844;4.412;2023-05-10T01:55:22;25.88;;;12.55;;
27796;SDS011;15177;50.844;4.412;2023-05-10T01:57:52;20.67;;;12.80;;
27796;SDS011;15177;50.844;4.412;2023-05-10T02:00:30;26.10;;;13.20;;
27796;SDS011;15177;50.844;4.412;2023-05-10T02:02:58;25.05;;;13.30;;
27796;SDS011;15177;50.844;4.412;2023-05-10T02:05:26;23.08;;;13.07;;
27796;SDS011;15177;50.844;4.412;2023-05-10T02:07:54;24.63;;;13.40;;
27796;SDS011;15177;50.844;4.412;2023-05-10T02:10:21;25.02;;;13.60;;
27796;SDS011;15177;50.844;4.412;2023-05-10T02:12:47;25.38;;;13.88;;
27796;SDS011;15177;50.844;4.412;2023-05-10T02:15:16;25.48;;;14.02;;
27796;SDS011;15177;50.844;4.412;2023-05-10T02:17:45;22.38;;;13.70;;
27796;SDS011;15177;50.844;4.412;2023-05-10T02:20:16;24.92;;;14.40;;
27796;SDS011;15177;50.844;4.412;2023-05-10T02:22:41;24.45;;;13.10;;
27796;SDS011;15177;50.844;4.412;2023-05-10T02:25:10;25.58;;;12.90;;
27796;SDS011;15177;50.844;4.412;2023-05-10T02:27:37;27.88;;;14.35;;
27796;SDS011;15177;50.844;4.412;2023-05-10T02:30:06;26.17;;;14.93;;
27796;SDS011;15177;50.844;4.412;2023-05-10T02:32:36;23.92;;;13.75;;
27796;SDS011;15177;50.844;4.412;2023-05-10T02:35:02;22.02;;;12.65;;
27796;SDS011;15177;50.844;4.412;2023-05-10T02:37:30;22.05;;;12.23;;
27796;SDS011;15177;50.844;4.412;2023-05-10T02:39:57;28.27;;;14.18;;
27796;SDS011;15177;50.844;4.412;2023-05-10T02:42:25;26.25;;;13.25;;
27796;SDS011;15177;50.844;4.412;2023-05-10T02:44:59;24.63;;;13.10;;
27796;SDS011;15177;50.844;4.412;2023-05-10T02:47:26;22.10;;;11.98;;
27796;SDS011;15177;50.844;4.412;2023-05-10T02:49:52;22.58;;;12.93;;
27796;SDS011;15177;50.844;4.412;2023-05-10T02:52:24;20.92;;;12.50;;
27796;SDS011;15177;50.844;4.412;2023-05-10T02:54:58;29.67;;;12.45;;
27796;SDS011;15177;50.844;4.412;2023-05-10T02:57:28;23.60;;;11.10;;
27796;SDS011;15177;50.844;4.412;2023-05-10T02:59:58;29.02;;;12.38;;
27796;SDS011;15177;50.844;4.412;2023-05-10T03:02:26;24.48;;;12.25;;
27796;SDS011;15177;50.844;4.412;2023-05-10T03:04:51;21.52;;;11.98;;
27796;SDS011;15177;50.844;4.412;2023-05-10T03:07:17;24.95;;;11.68;;
27796;SDS011;15177;50.844;4.412;2023-05-10T03:09:46;20.98;;;11.88;;
27796;SDS011;15177;50.844;4.412;2023-05-10T03:12:28;27.02;;;11.25;;
27796;SDS011;15177;50.844;4.412;2023-05-10T03:15:30;24.05;;;11.90;;
27796;SDS011;15177;50.844;4.412;2023-05-10T03:18:00;24.23;;;12.07;;
27796;SDS011;15177;50.844;4.412;2023-05-10T03:20:35;20.98;;;10.88;;
27796;SDS011;15177;50.844;4.412;2023-05-10T03:23:04;23.42;;;11.75;;
27796;SDS011;15177;50.844;4.412;2023-05-10T03:25:37;22.92;;;11.70;;
27796;SDS011;15177;50.844;4.412;2023-05-10T03:28:03;25.48;;;12.75;;
27796;SDS011;15177;50.844;4.412;2023-05-10T03:30:30;26.88;;;12.93;;
27796;SDS011;15177;50.844;4.412;2023-05-10T03:32:56;26.33;;;13.55;;
27796;SDS011;15177;50.844;4.412;2023-05-10T03:35:22;27.13;;;13.82;;
27796;SDS011;15177;50.844;4.412;2023-05-10T03:37:48;28.48;;;14.23;;
27796;SDS011;15177;50.844;4.412;2023-05-10T03:40:14;33.65;;;14.82;;
27796;SDS011;15177;50.844;4.412;2023-05-10T03:42:40;28.05;;;14.57;;
27796;SDS011;15177;50.844;4.412;2023-05-10T03:45:06;31.65;;;15.48;;
27796;SDS011;15177;50.844;4.412;2023-05-10T03:47:33;31.58;;;16.52;;
27796;SDS011;15177;50.844;4.412;2023-05-10T03:49:58;27.23;;;14.45;;
27796;SDS011;15177;50.844;4.412;2023-05-10T03:52:24;30.55;;;15.98;;
27796;SDS011;15177;50.844;4.412;2023-05-10T03:54:50;30.23;;;15.88;;
27796;SDS011;15177;50.844;4.412;2023-05-10T03:57:15;33.40;;;17.27;;
27796;SDS011;15177;50.844;4.412;2023-05-10T03:59:41;35.35;;;17.38;;
27796;SDS011;15177;50.844;4.412;2023-05-10T04:02:07;35.30;;;17.45;;
27796;SDS011;15177;50.844;4.412;2023-05-10T04:04:32;34.40;;;17.02;;
27796;SDS011;15177;50.844;4.412;2023-05-10T04:06:58;32.22;;;16.88;;
27796;SDS011;15177;50.844;4.412;2023-05-10T04:09:23;34.47;;;16.50;;
27796;SDS011;15177;50.844;4.412;2023-05-10T04:11:49;31.92;;;17.35;;
27796;SDS011;15177;50.844;4.412;2023-05-10T04:14:15;39.65;;;19.17;;
27796;SDS011;15177;50.844;4.412;2023-05-10T04:16:41;36.92;;;17.63;;
27796;SDS011;15177;50.844;4.412;2023-05-10T04:19:06;42.00;;;19.65;;
27796;SDS011;15177;50.844;4.412;2023-05-10T04:21:32;36.13;;;18.38;;
27796;SDS011;15177;50.844;4.412;2023-05-10T04:23:58;33.55;;;17.45;;
27796;SDS011;15177;50.844;4.412;2023-05-10T04:26:23;40.13;;;20.02;;
27796;SDS011;15177;50.844;4.412;2023-05-10T04:28:50;40.75;;;18.98;;
27796;SDS011;15177;50.844;4.412;2023-05-10T04:31:16;43.83;;;18.95;;
27796;SDS011;15177;50.844;4.412;2023-05-10T04:33:42;42.40;;;20.08;;
27796;SDS011;15177;50.844;4.412;2023-05-10T04:36:09;41.72;;;19.75;;
27796;SDS011;15177;50.844;4.412;2023-05-10T04:38:34;42.83;;;20.98;;
27796;SDS011;15177;50.844;4.412;2023-05-10T04:41:04;39.42;;;20.60;;
27796;SDS011;15177;50.844;4.412;2023-05-10T04:43:32;42.70;;;21.48;;
27796;SDS011;15177;50.844;4.412;2023-05-10T04:45:58;43.65;;;20.95;;
27796;SDS011;15177;50.844;4.412;2023-05-10T04:48:24;36.25;;;20.70;;
27796;SDS011;15177;50.844;4.412;2023-05-10T04:50:49;45.10;;;21.67;;
27796;SDS011;15177;50.844;4.412;2023-05-10T04:53:16;36.35;;;19.65;;
27796;SDS011;15177;50.844;4.412;2023-05-10T04:55:42;34.30;;;19.52;;
27796;SDS011;15177;50.844;4.412;2023-05-10T04:58:07;40.28;;;20.83;;
27796;SDS011;15177;50.844;4.412;2023-05-10T05:00:33;37.55;;;20.58;;
27796;SDS011;15177;50.844;4.412;2023-05-10T05:02:59;36.03;;;21.27;;
27796;SDS011;15177;50.844;4.412;2023-05-10T05:05:24;40.28;;;22.05;;
27796;SDS011;15177;50.844;4.412;2023-05-10T05:07:50;48.55;;;21.33;;
27796;SDS011;15177;50.844;4.412;2023-05-10T05:10:16;32.72;;;21.17;;
27796;SDS011;15177;50.844;4.412;2023-05-10T05:12:41;40.45;;;21.73;;
27796;SDS011;15177;50.844;4.412;2023-05-10T05:15:07;35.65;;;21.40;;
27796;SDS011;15177;50.844;4.412;2023-05-10T05:17:34;39.22;;;21.13;;
27796;SDS011;15177;50.844;4.412;2023-05-10T05:20:00;39.20;;;20.65;;
27796;SDS011;15177;50.844;4.412;2023-05-10T05:22:26;36.70;;;20.63;;
27796;SDS011;15177;50.844;4.412;2023-05-10T05:24:56;39.03;;;21.70;;
27796;SDS011;15177;50.844;4.412;2023-05-10T05:27:23;39.78;;;21.23;;
27796;SDS011;15177;50.844;4.412;2023-05-10T05:29:54;32.53;;;20.25;;
27796;SDS011;15177;50.844;4.412;2023-05-10T05:32:21;42.67;;;22.33;;
27796;SDS011;15177;50.844;4.412;2023-05-10T05:34:47;39.95;;;21.60;;
27796;SDS011;15177;50.844;4.412;2023-05-10T05:37:14;34.88;;;18.92;;
27796;SDS011;15177;50.844;4.412;2023-05-10T05:39:40;28.88;;;17.23;;
27796;SDS011;15177;50.844;4.412;2023-05-10T05:42:07;24.42;;;13.68;;
27796;SDS011;15177;50.844;4.412;2023-05-10T05:44:33;21.30;;;13.32;;
27796;SDS011;15177;50.844;4.412;2023-05-10T05:47:02;19.83;;;12.82;;
27796;SDS011;15177;50.844;4.412;2023-05-10T05:49:28;18.92;;;12.93;;
27796;SDS011;15177;50.844;4.412;2023-05-10T05:51:53;27.23;;;12.90;;
27796;SDS011;15177;50.844;4.412;2023-05-10T05:54:19;23.33;;;13.20;;
27796;SDS011;15177;50.844;4.412;2023-05-10T05:56:45;23.58;;;13.10;;
27796;SDS011;15177;50.844;4.412;2023-05-10T05:59:11;24.95;;;10.85;;
27796;SDS011;15177;50.844;4.412;2023-05-10T06:01:37;20.17;;;10.85;;
27796;SDS011;15177;50.844;4.412;2023-05-10T06:04:03;23.20;;;11.52;;
27796;SDS011;15177;50.844;4.412;2023-05-10T06:06:28;19.20;;;11.70;;
27796;SDS011;15177;50.844;4.412;2023-05-10T06:08:57;24.55;;;12.15;;
27796;SDS011;15177;50.844;4.412;2023-05-10T06:11:24;23.08;;;12.52;;
27796;SDS011;15177;50.844;4.412;2023-05-10T06:13:50;31.58;;;13.77;;
27796;SDS011;15177;50.844;4.412;2023-05-10T06:16:16;30.35;;;14.82;;
27796;SDS011;15177;50.844;4.412;2023-05-10T06:18:42;30.05;;;13.57;;
27796;SDS011;15177;50.844;4.412;2023-05-10T06:21:08;23.48;;;12.30;;
27796;SDS011;15177;50.844;4.412;2023-05-10T06:23:34;29.23;;;12.43;;
27796;SDS011;15177;50.844;4.412;2023-05-10T06:26:00;24.63;;;12.85;;
27796;SDS011;15177;50.844;4.412;2023-05-10T06:28:27;25.00;;;10.80;;
27796;SDS011;15177;50.844;4.412;2023-05-10T06:30:53;25.38;;;10.55;;
27796;SDS011;15177;50.844;4.412;2023-05-10T06:33:18;20.05;;;9.60;;
27796;SDS011;15177;50.844;4.412;2023-05-10T06:35:44;15.23;;;8.00;;
27796;SDS011;15177;50.844;4.412;2023-05-10T06:38:12;16.80;;;7.82;;
27796;SDS011;15177;50.844;4.412;2023-05-10T06:40:42;19.83;;;9.07;;
27796;SDS011;15177;50.844;4.412;2023-05-10T06:43:08;17.85;;;7.10;;
27796;SDS011;15177;50.844;4.412;2023-05-10T06:45:35;13.15;;;5.93;;
27796;SDS011;15177;50.844;4.412;2023-05-10T06:48:06;10.43;;;5.57;;
27796;SDS011;15177;50.844;4.412;2023-05-10T06:50:32;9.45;;;5.35;;
27796;SDS011;15177;50.844;4.412;2023-05-10T06:53:04;8.45;;;5.18;;
27796;SDS011;15177;50.844;4.412;2023-05-10T06:55:29;13.20;;;5.47;;
27796;SDS011;15177;50.844;4.412;2023-05-10T06:57:59;13.23;;;5.93;;
27796;SDS011;15177;50.844;4.412;2023-05-10T07:00:47;13.63;;;6.65;;
27796;SDS011;15177;50.844;4.412;2023-05-10T07:03:13;15.25;;;8.52;;
27796;SDS011;15177;50.844;4.412;2023-05-10T07:05:39;16.92;;;7.85;;
27796;SDS011;15177;50.844;4.412;2023-05-10T07:08:07;14.07;;;8.15;;
27796;SDS011;15177;50.844;4.412;2023-05-10T07:10:33;11.85;;;6.97;;
27796;SDS011;15177;50.844;4.412;2023-05-10T07:12:59;13.60;;;8.32;;
27796;SDS011;15177;50.844;4.412;2023-05-10T07:15:32;17.40;;;9.18;;
27796;SDS011;15177;50.844;4.412;2023-05-10T07:17:58;18.33;;;8.73;;
27796;SDS011;15177;50.844;4.412;2023-05-10T07:20:24;16.50;;;8.93;;
27796;SDS011;15177;50.844;4.412;2023-05-10T07:22:52;15.30;;;8.77;;
27796;SDS011;15177;50.844;4.412;2023-05-10T07:25:18;16.60;;;8.98;;
27796;SDS011;15177;50.844;4.412;2023-05-10T07:27:45;20.35;;;9.20;;
27796;SDS011;15177;50.844;4.412;2023-05-10T07:30:14;21.98;;;10.25;;
27796;SDS011;15177;50.844;4.412;2023-05-10T07:32:40;19.77;;;9.75;;
27796;SDS011;15177;50.844;4.412;2023-05-10T07:35:07;30.23;;;11.50;;
27796;SDS011;15177;50.844;4.412;2023-05-10T07:37:33;30.08;;;12.20;;
27796;SDS011;15177;50.844;4.412;2023-05-10T07:39:58;29.63;;;12.70;;
27796;SDS011;15177;50.844;4.412;2023-05-10T07:42:27;24.63;;;12.60;;
27796;SDS011;15177;50.844;4.412;2023-05-10T07:44:58;25.15;;;11.80;;
27796;SDS011;15177;50.844;4.412;2023-05-10T07:47:35;20.50;;;11.07;;
27796;SDS011;15177;50.844;4.412;2023-05-10T07:50:05;16.52;;;10.32;;
27796;SDS011;15177;50.844;4.412;2023-05-10T07:52:32;19.77;;;10.98;;
27796;SDS011;15177;50.844;4.412;2023-05-10T07:55:05;21.85;;;10.82;;
27796;SDS011;15177;50.844;4.412;2023-05-10T07:57:33;18.05;;;9.60;;
27796;SDS011;15177;50.844;4.412;2023-05-10T08:00:01;19.83;;;9.88;;
27796;SDS011;15177;50.844;4.412;2023-05-10T08:02:31;20.67;;;8.90;;
27796;SDS011;15177;50.844;4.412;2023-05-10T08:04:57;19.17;;;8.90;;
27796;SDS011;15177;50.844;4.412;2023-05-10T08:07:24;19.20;;;8.68;;
27796;SDS011;15177;50.844;4.412;2023-05-10T08:09:50;16.17;;;9.13;;
27796;SDS011;15177;50.844;4.412;2023-05-10T08:12:15;15.90;;;8.63;;
27796;SDS011;15177;50.844;4.412;2023-05-10T08:14:41;15.38;;;8.57;;
27796;SDS011;15177;50.844;4.412;2023-05-10T08:17:07;14.55;;;8.43;;
27796;SDS011;15177;50.844;4.412;2023-05-10T08:19:34;16.55;;;8.27;;
27796;SDS011;15177;50.844;4.412;2023-05-10T08:22:00;23.40;;;10.45;;
27796;SDS011;15177;50.844;4.412;2023-05-10T08:24:26;20.30;;;9.60;;
27796;SDS011;15177;50.844;4.412;2023-05-10T08:26:51;18.27;;;9.68;;
27796;SDS011;15177;50.844;4.412;2023-05-10T08:29:17;16.48;;;8.32;;
27796;SDS011;15177;50.844;4.412;2023-05-10T08:31:43;17.38;;;8.82;;
27796;SDS011;15177;50.844;4.412;2023-05-10T08:34:09;14.80;;;7.50;;
27796;SDS011;15177;50.844;4.412;2023-05-10T08:36:35;19.38;;;7.10;;
27796;SDS011;15177;50.844;4.412;2023-05-10T08:39:01;14.15;;;7.43;;
27796;SDS011;15177;50.844;4.412;2023-05-10T08:41:28;12.35;;;6.40;;
27796;SDS011;15177;50.844;4.412;2023-05-10T08:43:58;11.50;;;6.68;;
27796;SDS011;15177;50.844;4.412;2023-05-10T08:46:28;11.45;;;6.38;;
27796;SDS011;15177;50.844;4.412;2023-05-10T08:48:55;10.88;;;5.53;;
27796;SDS011;15177;50.844;4.412;2023-05-10T08:51:25;11.93;;;6.25;;
27796;SDS011;15177;50.844;4.412;2023-05-10T08:53:52;11.98;;;6.65;;
27796;SDS011;15177;50.844;4.412;2023-05-10T08:56:19;11.40;;;6.45;;
27796;SDS011;15177;50.844;4.412;2023-05-10T08:58:45;12.73;;;6.93;;
27796;SDS011;15177;50.844;4.412;2023-05-10T09:01:12;11.85;;;6.18;;
27796;SDS011;15177;50.844;4.412;2023-05-10T09:03:39;10.80;;;5.93;;
27796;SDS011;15177;50.844;4.412;2023-05-10T09:06:06;14.07;;;7.22;;
27796;SDS011;15177;50.844;4.412;2023-05-10T09:08:31;12.18;;;7.72;;
27796;SDS011;15177;50.844;4.412;2023-05-10T09:10:58;12.70;;;6.65;;
27796;SDS011;15177;50.844;4.412;2023-05-10T09:13:28;11.98;;;7.32;;
27796;SDS011;15177;50.844;4.412;2023-05-10T09:15:56;16.08;;;8.07;;
27796;SDS011;15177;50.844;4.412;2023-05-10T09:18:24;11.85;;;6.57;;
27796;SDS011;15177;50.844;4.412;2023-05-10T09:20:50;11.95;;;7.07;;
27796;SDS011;15177;50.844;4.412;2023-05-10T09:23:15;10.75;;;6.47;;
27796;SDS011;15177;50.844;4.412;2023-05-10T09:25:41;12.48;;;7.00;;
27796;SDS011;15177;50.844;4.412;2023-05-10T09:28:08;12.63;;;7.57;;
27796;SDS011;15177;50.844;4.412;2023-05-10T09:30:36;12.07;;;6.07;;
27796;SDS011;15177;50.844;4.412;2023-05-10T09:33:03;11.40;;;6.15;;
27796;SDS011;15177;50.844;4.412;2023-05-10T09:35:30;11.02;;;7.32;;
27796;SDS011;15177;50.844;4.412;2023-05-10T09:38:02;10.25;;;6.10;;
27796;SDS011;15177;50.844;4.412;2023-05-10T09:40:30;9.48;;;5.93;;
27796;SDS011;15177;50.844;4.412;2023-05-10T09:43:01;6.95;;;4.70;;
27796;SDS011;15177;50.844;4.412;2023-05-10T09:45:33;9.73;;;4.65;;
27796;SDS011;15177;50.844;4.412;2023-05-10T09:48:00;8.10;;;4.88;;
27796;SDS011;15177;50.844;4.412;2023-05-10T09:50:28;6.28;;;4.18;;
27796;SDS011;15177;50.844;4.412;2023-05-10T09:55:25;8.35;;;5.35;;
27796;SDS011;15177;50.844;4.412;2023-05-10T09:58:03;7.57;;;4.75;;
27796;SDS011;15177;50.844;4.412;2023-05-10T10:00:34;7.53;;;4.65;;
27796;SDS011;15177;50.844;4.412;2023-05-10T10:03:02;6.72;;;4.78;;
27796;SDS011;15177;50.844;4.412;2023-05-10T10:05:28;6.40;;;4.78;;
27796;SDS011;15177;50.844;4.412;2023-05-10T10:07:56;8.88;;;5.05;;
27796;SDS011;15177;50.844;4.412;2023-05-10T10:10:23;11.88;;;5.22;;
27796;SDS011;15177;50.844;4.412;2023-05-10T10:12:50;7.95;;;5.65;;
27796;SDS011;15177;50.844;4.412;2023-05-10T10:15:17;7.13;;;5.43;;
27796;SDS011;15177;50.844;4.412;2023-05-10T10:17:46;10.55;;;5.80;;
27796;SDS011;15177;50.844;4.412;2023-05-10T10:20:14;8.80;;;5.40;;
27796;SDS011;15177;50.844;4.412;2023-05-10T10:22:40;8.32;;;5.57;;
27796;SDS011;15177;50.844;4.412;2023-05-10T10:25:06;8.65;;;5.25;;
27796;SDS011;15177;50.844;4.412;2023-05-10T10:35:50;9.05;;;5.63;;
27796;SDS011;15177;50.844;4.412;2023-05-10T10:38:17;8.98;;;4.93;;
27796;SDS011;15177;50.844;4.412;2023-05-10T10:40:42;14.57;;;5.60;;
27796;SDS011;15177;50.844;4.412;2023-05-10T10:43:24;8.27;;;5.35;;
27796;SDS011;15177;50.844;4.412;2023-05-10T10:49:09;7.75;;;4.68;;
27796;SDS011;15177;50.844;4.412;2023-05-10T10:51:38;9.45;;;5.18;;
27796;SDS011;15177;50.844;4.412;2023-05-10T10:54:11;8.27;;;4.78;;
27796;SDS011;15177;50.844;4.412;2023-05-10T10:56:37;7.72;;;4.30;;
27796;SDS011;15177;50.844;4.412;2023-05-10T10:59:04;6.13;;;4.15;;
27796;SDS011;15177;50.844;4.412;2023-05-10T11:01:33;7.13;;;5.00;;
27796;SDS011;15177;50.844;4.412;2023-05-10T11:06:34;8.35;;;5.35;;
27796;SDS011;15177;50.844;4.412;2023-05-10T11:09:21;9.63;;;4.60;;
27796;SDS011;15177;50.844;4.412;2023-05-10T11:11:53;7.82;;;4.22;;
27796;SDS011;15177;50.844;4.412;2023-05-10T11:14:21;8.93;;;5.05;;
27796;SDS011;15177;50.844;4.412;2023-05-10T11:16:47;7.68;;;5.00;;
27796;SDS011;15177;50.844;4.412;2023-05-10T11:19:16;10.85;;;5.13;;
27796;SDS011;15177;50.844;4.412;2023-05-10T11:21:45;6.97;;;4.97;;
27796;SDS011;15177;50.844;4.412;2023-05-10T11:24:38;6.70;;;4.78;;
27796;SDS011;15177;50.844;4.412;2023-05-10T11:27:05;9.80;;;5.20;;
27796;SDS011;15177;50.844;4.412;2023-05-10T11:29:31;8.30;;;5.50;;
27796;SDS011;15177;50.844;4.412;2023-05-10T11:31:57;7.38;;;5.38;;
27796;SDS011;15177;50.844;4.412;2023-05-10T11:36:51;7.32;;;4.93;;
27796;SDS011;15177;50.844;4.412;2023-05-10T11:39:18;8.70;;;5.15;;
27796;SDS011;15177;50.844;4.412;2023-05-10T11:41:49;8.13;;;5.18;;
27796;SDS011;15177;50.844;4.412;2023-05-10T11:44:15;7.57;;;4.32;;
27796;SDS011;15177;50.844;4.412;2023-05-10T11:46:41;7.93;;;4.35;;
27796;SDS011;15177;50.844;4.412;2023-05-10T11:49:07;7.55;;;4.05;;
27796;SDS011;15177;50.844;4.412;2023-05-10T11:51:36;10.95;;;4.85;;
27796;SDS011;15177;50.844;4.412;2023-05-10T11:54:08;6.20;;;4.60;;
27796;SDS011;15177;50.844;4.412;2023-05-10T11:56:36;6.03;;;4.25;;
27796;SDS011;15177;50.844;4.412;2023-05-10T11:59:03;7.50;;;4.57;;
27796;SDS011;15177;50.844;4.412;2023-05-10T12:01:29;6.63;;;4.60;;
27796;SDS011;15177;50.844;4.412;2023-05-10T12:03:56;7.38;;;4.57;;
27796;SDS011;15177;50.844;4.412;2023-05-10T12:06:28;8.25;;;4.38;;
27796;SDS011;15177;50.844;4.412;2023-05-10T12:09:02;8.50;;;5.07;;
27796;SDS011;15177;50.844;4.412;2023-05-10T12:11:31;5.80;;;3.90;;
27796;SDS011;15177;50.844;4.412;2023-05-10T12:13:57;6.00;;;4.13;;
27796;SDS011;15177;50.844;4.412;2023-05-10T12:16:24;7.70;;;4.97;;
27796;SDS011;15177;50.844;4.412;2023-05-10T12:18:51;7.57;;;5.18;;
27796;SDS011;15177;50.844;4.412;2023-05-10T12:21:18;9.40;;;5.25;;
27796;SDS011;15177;50.844;4.412;2023-05-10T12:23:45;9.30;;;6.28;;
27796;SDS011;15177;50.844;4.412;2023-05-10T12:26:12;8.57;;;6.28;;
27796;SDS011;15177;50.844;4.412;2023-05-10T12:28:37;10.13;;;6.30;;
27796;SDS011;15177;50.844;4.412;2023-05-10T12:31:06;9.05;;;6.20;;
27796;SDS011;15177;50.844;4.412;2023-05-10T12:33:36;8.27;;;5.55;;
27796;SDS011;15177;50.844;4.412;2023-05-10T12:36:07;8.18;;;5.15;;
27796;SDS011;15177;50.844;4.412;2023-05-10T12:38:38;8.68;;;5.07;;
27796;SDS011;15177;50.844;4.412;2023-05-10T12:41:09;8.68;;;6.10;;
27796;SDS011;15177;50.844;4.412;2023-05-10T12:43:36;8.38;;;5.85;;
27796;SDS011;15177;50.844;4.412;2023-05-10T12:48:32;7.20;;;5.72;;
27796;SDS011;15177;50.844;4.412;2023-05-10T12:51:01;11.55;;;6.30;;
27796;SDS011;15177;50.844;4.412;2023-05-10T12:53:27;9.25;;;6.47;;
27796;SDS011;15177;50.844;4.412;2023-05-10T12:55:54;10.02;;;6.05;;
27796;SDS011;15177;50.844;4.412;2023-05-10T12:58:20;10.20;;;6.65;;
27796;SDS011;15177;50.844;4.412;2023-05-10T13:00:46;10.20;;;6.53;;
27796;SDS011;15177;50.844;4.412;2023-05-10T13:03:12;8.70;;;6.60;;
27796;SDS011;15177;50.844;4.412;2023-05-10T13:05:37;8.57;;;6.13;;
27796;SDS011;15177;50.844;4.412;2023-05-10T13:08:03;8.07;;;5.85;;
27796;SDS011;15177;50.844;4.412;2023-05-10T13:10:30;9.98;;;5.90;;
27796;SDS011;15177;50.844;4.412;2023-05-10T13:12:57;9.30;;;5.47;;
27796;SDS011;15177;50.844;4.412;2023-05-10T13:15:24;7.97;;;5.75;;
27796;SDS011;15177;50.844;4.412;2023-05-10T13:17:51;8.40;;;4.68;;
27796;SDS011;15177;50.844;4.412;2023-05-10T13:20:18;6.57;;;4.75;;
27796;SDS011;15177;50.844;4.412;2023-05-10T13:22:43;8.77;;;4.75;;
27796;SDS011;15177;50.844;4.412;2023-05-10T13:25:10;5.47;;;4.03;;
27796;SDS011;15177;50.844;4.412;2023-05-10T13:27:36;8.65;;;3.88;;
27796;SDS011;15177;50.844;4.412;2023-05-10T13:30:03;7.75;;;4.38;;
27796;SDS011;15177;50.844;4.412;2023-05-10T13:32:29;7.25;;;3.47;;
27796;SDS011;15177;50.844;4.412;2023-05-10T13:34:55;4.22;;;3.58;;
27796;SDS011;15177;50.844;4.412;2023-05-10T13:37:21;6.30;;;3.72;;
27796;SDS011;15177;50.844;4.412;2023-05-10T13:39:47;4.70;;;3.40;;
27796;SDS011;15177;50.844;4.412;2023-05-10T13:42:13;8.95;;;4.88;;
27796;SDS011;15177;50.844;4.412;2023-05-10T13:44:39;8.38;;;5.20;;
27796;SDS011;15177;50.844;4.412;2023-05-10T13:47:05;11.90;;;4.72;;
27796;SDS011;15177;50.844;4.412;2023-05-10T13:49:31;8.95;;;5.95;;
27796;SDS011;15177;50.844;4.412;2023-05-10T13:51:56;9.55;;;6.43;;
27796;SDS011;15177;50.844;4.412;2023-05-10T13:54:23;7.85;;;5.15;;
27796;SDS011;15177;50.844;4.412;2023-05-10T13:56:49;12.55;;;6.53;;
27796;SDS011;15177;50.844;4.412;2023-05-10T13:59:14;8.82;;;6.18;;
27796;SDS011;15177;50.844;4.412;2023-05-10T14:01:40;10.57;;;6.22;;
27796;SDS011;15177;50.844;4.412;2023-05-10T14:04:07;6.55;;;4.82;;
27796;SDS011;15177;50.844;4.412;2023-05-10T14:06:35;12.20;;;6.22;;
27796;SDS011;15177;50.844;4.412;2023-05-10T14:09:01;12.27;;;6.00;;
27796;SDS011;15177;50.844;4.412;2023-05-10T14:11:27;13.75;;;7.00;;
27796;SDS011;15177;50.844;4.412;2023-05-10T14:13:53;14.98;;;7.55;;
27796;SDS011;15177;50.844;4.412;2023-05-10T14:16:19;11.25;;;7.05;;
27796;SDS011;15177;50.844;4.412;2023-05-10T14:18:45;11.18;;;6.80;;
27796;SDS011;15177;50.844;4.412;2023-05-10T14:21:11;12.00;;;8.73;;
27796;SDS011;15177;50.844;4.412;2023-05-10T14:23:40;13.68;;;8.48;;
27796;SDS011;15177;50.844;4.412;2023-05-10T14:26:06;13.48;;;10.10;;
27796;SDS011;15177;50.844;4.412;2023-05-10T14:28:33;17.15;;;11.02;;
27796;SDS011;15177;50.844;4.412;2023-05-10T14:30:59;17.00;;;12.07;;
27796;SDS011;15177;50.844;4.412;2023-05-10T14:33:24;21.48;;;11.55;;
27796;SDS011;15177;50.844;4.412;2023-05-10T14:35:51;21.63;;;12.88;;
27796;SDS011;15177;50.844;4.412;2023-05-10T14:38:19;16.02;;;11.00;;
27796;SDS011;15177;50.844;4.412;2023-05-10T14:40:44;37.72;;;10.90;;
27796;SDS011;15177;50.844;4.412;2023-05-10T14:43:12;19.23;;;10.68;;
27796;SDS011;15177;50.844;4.412;2023-05-10T14:45:37;16.60;;;10.43;;
27796;SDS011;15177;50.844;4.412;2023-05-10T14:48:04;16.00;;;10.70;;
27796;SDS011;15177;50.844;4.412;2023-05-10T14:50:30;15.60;;;9.80;;
27796;SDS011;15177;50.844;4.412;2023-05-10T14:52:56;15.68;;;10.57;;
27796;SDS011;15177;50.844;4.412;2023-05-10T14:55:24;21.33;;;12.23;;
27796;SDS011;15177;50.844;4.412;2023-05-10T14:57:50;23.02;;;11.38;;
27796;SDS011;15177;50.844;4.412;2023-05-10T15:00:16;19.63;;;12.07;;
27796;SDS011;15177;50.844;4.412;2023-05-10T15:02:43;20.05;;;11.80;;
27796;SDS011;15177;50.844;4.412;2023-05-10T15:05:12;23.05;;;12.45;;